Time;durP1;ratioP1;P1;durP2;ratioP2;P2;SDS_P1;SDS_P2;PMS_P1;PMS_P2;Temp;Humidity;BMP_temperature;BMP_pressure;BME280_temperature;BME280_humidity;BME280_pressure;Samples;Min_cycle;Max_cycle;Signal;HPM_P1;HPM_P2
2023/12/02 00:01:54;;;;;;;35.30;24.35;;;-0.30;99.90;;;;;;5033220;28;20096;-72
2023/12/02 00:04:20;;;;;;;35.35;24.08;;;-0.30;99.90;;;;;;5015502;28;20467;-79
2023/12/02 00:06:46;;;;;;;33.45;23.30;;;-0.30;99.90;;;;;;5032096;28;20045;-73
2023/12/02 00:09:12;;;;;;;35.83;24.92;;;0.10;99.90;;;;;;5031919;28;20506;-72
2023/12/02 00:11:38;;;;;;;34.55;24.17;;;-0.30;99.90;;;;;;5032924;28;20053;-74
2023/12/02 00:14:04;;;;;;;35.88;24.95;;;-0.30;99.90;;;;;;5031830;28;20049;-72
2023/12/02 00:16:29;;;;;;;38.22;25.38;;;-0.40;99.90;;;;;;5031888;28;20099;-72
2023/12/02 00:18:55;;;;;;;35.20;24.48;;;-0.30;99.90;;;;;;5033110;28;20057;-72
2023/12/02 00:21:21;;;;;;;32.50;23.58;;;0.00;99.90;;;;;;5031712;28;20056;-73
2023/12/02 00:23:47;;;;;;;31.85;22.38;;;-0.30;99.90;;;;;;5015037;28;20056;-72
2023/12/02 00:26:12;;;;;;;35.47;23.77;;;-0.30;99.90;;;;;;5031970;28;20376;-72
2023/12/02 00:28:38;;;;;;;35.25;23.60;;;-0.30;99.90;;;;;;5015496;28;20464;-73
2023/12/02 00:31:04;;;;;;;35.58;24.08;;;-0.30;99.90;;;;;;5031220;28;20064;-73
2023/12/02 00:33:29;;;;;;;33.78;23.40;;;-0.20;99.90;;;;;;5032469;28;20124;-73
2023/12/02 00:35:56;;;;;;;35.85;24.85;;;-0.20;99.90;;;;;;5031919;28;20136;-71
2023/12/02 00:38:21;;;;;;;36.50;26.20;;;-0.20;99.90;;;;;;5030882;28;20061;-76
2023/12/02 00:40:47;;;;;;;33.63;23.08;;;-0.20;99.90;;;;;;5030838;28;20062;-76
2023/12/02 00:43:13;;;;;;;34.72;23.98;;;0.10;99.90;;;;;;5032479;28;20041;-73
2023/12/02 00:45:39;;;;;;;36.80;24.83;;;-0.20;99.90;;;;;;5031347;28;20041;-73
2023/12/02 00:48:05;;;;;;;37.22;25.50;;;-0.20;99.90;;;;;;5031593;28;20395;-73
2023/12/02 00:50:31;;;;;;;37.38;25.50;;;-0.20;99.90;;;;;;5014463;28;20060;-73
2023/12/02 00:52:57;;;;;;;34.25;24.40;;;0.10;99.90;;;;;;5030875;28;20046;-74
2023/12/02 00:55:23;;;;;;;38.20;25.73;;;-0.20;99.90;;;;;;5031815;28;20102;-73
2023/12/02 00:57:48;;;;;;;35.10;24.35;;;-0.10;99.90;;;;;;5030923;28;20641;-73
2023/12/02 01:00:15;;;;;;;35.25;24.50;;;0.20;99.90;;;;;;5014940;28;20056;-73
2023/12/02 01:02:42;;;;;;;35.13;24.58;;;-0.20;99.90;;;;;;5030802;28;20140;-73
2023/12/02 01:05:08;;;;;;;33.67;24.42;;;-0.20;99.90;;;;;;5031476;28;20128;-73
2023/12/02 01:07:33;;;;;;;35.80;24.05;;;-0.20;99.90;;;;;;5031063;28;20054;-73
2023/12/02 01:09:59;;;;;;;34.95;24.10;;;-0.10;99.90;;;;;;5014721;28;20414;-73
2023/12/02 01:12:25;;;;;;;35.33;24.58;;;-0.20;99.90;;;;;;5031295;28;20045;-73
2023/12/02 01:14:50;;;;;;;39.13;26.08;;;0.10;99.90;;;;;;5030824;28;20111;-73
2023/12/02 01:17:16;;;;;;;37.65;25.40;;;-0.20;99.90;;;;;;5031312;28;20391;-73
2023/12/02 01:19:43;;;;;;;39.15;24.42;;;0.10;99.90;;;;;;5014270;28;20483;-73
2023/12/02 01:22:09;;;;;;;35.33;25.13;;;-0.20;99.90;;;;;;5032393;28;20053;-73
2023/12/02 01:24:35;;;;;;;36.45;24.08;;;-0.20;99.90;;;;;;5031957;28;20115;-73
2023/12/02 01:27:00;;;;;;;37.58;26.25;;;0.20;99.90;;;;;;5032337;28;20049;-73
2023/12/02 01:29:26;;;;;;;36.83;24.98;;;-0.20;99.90;;;;;;5014715;28;20441;-73
2023/12/02 01:31:52;;;;;;;38.00;24.83;;;-0.20;99.90;;;;;;5030640;28;20103;-72
2023/12/02 01:34:17;;;;;;;35.40;23.95;;;-0.20;99.90;;;;;;5030778;28;20095;-74
2023/12/02 01:36:45;;;;;;;36.58;24.90;;;-0.20;99.90;;;;;;5014012;28;20049;-73
2023/12/02 01:39:12;;;;;;;36.00;24.52;;;-0.20;99.90;;;;;;5031286;28;20391;-74
2023/12/02 01:41:38;;;;;;;33.63;23.75;;;-0.10;99.90;;;;;;5031747;28;20415;-73
2023/12/02 01:44:04;;;;;;;33.05;23.02;;;-0.20;99.90;;;;;;5030657;28;20081;-73
2023/12/02 01:46:30;;;;;;;33.53;23.30;;;-0.20;99.90;;;;;;5031997;28;20092;-73
2023/12/02 01:48:58;;;;;;;31.25;21.00;;;-0.20;99.90;;;;;;5030145;28;20114;-73
2023/12/02 01:51:24;;;;;;;31.70;21.95;;;0.60;99.90;;;;;;5014674;28;20143;-74
2023/12/02 01:53:50;;;;;;;30.95;22.05;;;-0.10;99.90;;;;;;5030420;28;20041;-74
2023/12/02 01:56:17;;;;;;;32.20;21.60;;;0.40;99.90;;;;;;5030580;28;20045;-76
2023/12/02 01:58:43;;;;;;;32.22;22.38;;;0.30;99.90;;;;;;5033581;28;20107;-74
2023/12/02 02:01:08;;;;;;;32.08;22.70;;;-0.10;99.90;;;;;;5034201;28;20057;-74
2023/12/02 02:03:34;;;;;;;33.08;22.73;;;-0.10;99.90;;;;;;5035179;28;20049;-71
2023/12/02 02:06:00;;;;;;;32.15;21.88;;;-0.10;99.90;;;;;;5034044;28;20052;-72
2023/12/02 02:08:26;;;;;;;32.03;22.45;;;-0.10;99.90;;;;;;5034327;28;20061;-72
2023/12/02 02:10:59;;;;;;;33.47;23.17;;;-0.10;99.90;;;;;;5001092;28;20053;-72
2023/12/02 02:13:25;;;;;;;31.30;22.40;;;-0.20;99.90;;;;;;5034517;28;20080;-72
2023/12/02 02:15:51;;;;;;;32.00;21.95;;;0.40;99.90;;;;;;5034614;28;20505;-72
2023/12/02 02:18:18;;;;;;;35.90;23.73;;;0.30;99.90;;;;;;5017604;28;20045;-74
2023/12/02 02:20:51;;;;;;;34.75;23.58;;;-0.20;99.90;;;;;;5034456;28;20475;-74
2023/12/02 02:23:22;;;;;;;36.33;24.07;;;0.30;99.90;;;;;;5017558;28;20053;-74
2023/12/02 02:25:52;;;;;;;42.42;27.08;;;-0.20;99.90;;;;;;5017008;28;20107;-73
2023/12/02 02:28:26;;;;;;;37.88;26.38;;;-0.20;99.90;;;;;;5034871;28;20129;-74
2023/12/02 02:30:54;;;;;;;37.63;26.85;;;-0.20;99.90;;;;;;5016524;28;20107;-73
2023/12/02 02:33:20;;;;;;;40.80;27.70;;;-0.20;99.90;;;;;;5017481;28;20053;-74
2023/12/02 02:35:47;;;;;;;42.15;27.60;;;0.70;99.90;;;;;;5032841;28;20057;-75
2023/12/02 02:38:12;;;;;;;39.13;26.48;;;-0.20;99.90;;;;;;5033722;28;20429;-74
2023/12/02 02:40:39;;;;;;;38.25;26.10;;;-0.20;99.90;;;;;;5034736;28;20128;-73
2023/12/02 02:43:05;;;;;;;37.97;27.05;;;-0.20;99.90;;;;;;5032837;28;20081;-73
2023/12/02 02:45:31;;;;;;;38.95;27.05;;;-0.20;99.90;;;;;;5017209;28;20089;-73
2023/12/02 02:47:57;;;;;;;37.72;26.90;;;-0.20;99.90;;;;;;5016455;28;20399;-73
2023/12/02 02:50:23;;;;;;;41.47;28.23;;;-0.20;99.90;;;;;;5033521;28;20049;-73
2023/12/02 02:52:49;;;;;;;39.47;26.92;;;-0.20;99.90;;;;;;5032843;28;20137;-73
2023/12/02 02:55:15;;;;;;;40.20;28.67;;;0.50;99.90;;;;;;5033060;28;20399;-74
2023/12/02 02:57:40;;;;;;;37.70;26.90;;;-0.30;99.90;;;;;;5033384;28;20045;-73
2023/12/02 03:00:09;;;;;;;38.40;26.77;;;-0.30;99.90;;;;;;5032787;28;20179;-73
2023/12/02 03:02:36;;;;;;;40.92;27.90;;;-0.30;99.90;;;;;;5033183;28;20064;-73
2023/12/02 03:05:02;;;;;;;38.78;26.20;;;-0.30;99.90;;;;;;5016327;28;20049;-73
2023/12/02 03:07:28;;;;;;;37.95;26.10;;;-0.30;99.90;;;;;;5016661;28;20160;-73
2023/12/02 03:09:53;;;;;;;40.03;27.27;;;-0.30;99.90;;;;;;5031728;28;20046;-73
2023/12/02 03:12:19;;;;;;;39.35;27.52;;;-0.30;99.90;;;;;;5034086;28;20426;-72
2023/12/02 03:14:44;;;;;;;37.85;27.02;;;-0.30;99.90;;;;;;5016739;28;20076;-73
2023/12/02 03:17:10;;;;;;;40.38;26.60;;;-0.30;99.90;;;;;;5032192;28;20053;-73
2023/12/02 03:19:36;;;;;;;41.33;27.50;;;-0.20;99.90;;;;;;5032700;28;20042;-73
2023/12/02 03:22:02;;;;;;;39.47;27.42;;;-0.20;99.90;;;;;;5032321;28;20057;-74
2023/12/02 03:24:28;;;;;;;36.53;25.17;;;-0.20;99.90;;;;;;4999859;28;20053;-73
2023/12/02 03:26:54;;;;;;;37.45;25.90;;;0.20;99.90;;;;;;5033089;28;20456;-74
2023/12/02 03:29:19;;;;;;;40.97;28.40;;;-0.20;99.90;;;;;;5016068;28;20388;-74
2023/12/02 03:31:45;;;;;;;37.40;26.48;;;-0.20;99.90;;;;;;5015820;28;20061;-73
2023/12/02 03:34:11;;;;;;;37.03;25.88;;;0.40;99.90;;;;;;5031877;28;20053;-74
2023/12/02 03:36:36;;;;;;;33.40;24.63;;;-0.20;99.90;;;;;;5016029;28;20041;-74
2023/12/02 03:39:03;;;;;;;34.35;23.85;;;-0.20;99.90;;;;;;5031911;28;20041;-74
2023/12/02 03:41:29;;;;;;;36.47;25.85;;;-0.30;99.90;;;;;;5033393;28;20041;-74
2023/12/02 03:43:55;;;;;;;35.55;25.33;;;-0.30;99.90;;;;;;5033145;28;20053;-74
2023/12/02 03:46:21;;;;;;;35.13;24.85;;;-0.20;99.90;;;;;;5032551;28;20604;-73
2023/12/02 03:48:46;;;;;;;34.20;23.83;;;0.50;99.90;;;;;;5032311;28;20141;-74
2023/12/02 03:51:12;;;;;;;33.60;24.70;;;-0.30;99.90;;;;;;5014962;28;20041;-74
2023/12/02 03:53:38;;;;;;;33.63;23.98;;;-0.20;99.90;;;;;;5033241;28;20053;-74
2023/12/02 03:56:05;;;;;;;35.63;24.05;;;-0.30;99.90;;;;;;4999222;28;20445;-74
2023/12/02 03:58:31;;;;;;;36.28;25.02;;;-0.30;99.90;;;;;;5032247;28;20049;-74
2023/12/02 04:00:57;;;;;;;33.83;22.65;;;-0.30;99.90;;;;;;5030999;28;20049;-75
2023/12/02 04:03:23;;;;;;;33.35;22.77;;;-0.30;99.90;;;;;;5032043;28;20050;-73
2023/12/02 04:05:50;;;;;;;32.30;23.70;;;-0.30;99.90;;;;;;5033048;28;20098;-74
2023/12/02 04:08:16;;;;;;;31.02;22.52;;;-0.30;99.90;;;;;;5031664;28;20045;-74
2023/12/02 04:10:42;;;;;;;30.90;22.33;;;-0.10;99.90;;;;;;5032035;28;20490;-74
2023/12/02 04:13:08;;;;;;;29.98;21.25;;;-0.40;99.90;;;;;;5015158;28;20139;-74
2023/12/02 04:15:35;;;;;;;29.95;21.17;;;-0.30;99.90;;;;;;5015508;28;20103;-74
2023/12/02 04:18:01;;;;;;;29.80;20.83;;;0.00;99.90;;;;;;5031395;28;20060;-74
2023/12/02 04:20:26;;;;;;;29.23;22.05;;;-0.20;99.90;;;;;;5031697;28;20057;-74
2023/12/02 04:22:53;;;;;;;32.80;23.25;;;-0.30;99.90;;;;;;5031472;28;20391;-74
2023/12/02 04:25:19;;;;;;;32.30;22.98;;;-0.20;99.90;;;;;;5031354;28;20150;-74
2023/12/02 04:27:46;;;;;;;32.92;23.15;;;-0.30;99.90;;;;;;5031717;28;20041;-74
2023/12/02 04:30:12;;;;;;;29.30;21.90;;;-0.30;99.90;;;;;;5030873;28;20132;-74
2023/12/02 04:32:38;;;;;;;30.90;22.05;;;-0.30;99.90;;;;;;5032519;28;20554;-74
2023/12/02 04:35:05;;;;;;;34.00;24.45;;;-0.30;99.90;;;;;;5032520;28;20059;-74
2023/12/02 04:37:31;;;;;;;32.78;22.77;;;-0.30;99.90;;;;;;5031562;28;20057;-75
2023/12/02 04:39:57;;;;;;;34.40;24.08;;;0.10;99.90;;;;;;5031463;28;20041;-79
2023/12/02 04:42:23;;;;;;;32.70;22.52;;;-0.30;99.90;;;;;;5031260;28;20390;-73
2023/12/02 04:44:49;;;;;;;33.60;23.80;;;-0.30;99.90;;;;;;5031174;28;20049;-74
2023/12/02 04:47:15;;;;;;;33.20;24.23;;;-0.40;99.90;;;;;;5031067;28;20053;-73
2023/12/02 04:49:41;;;;;;;31.08;23.70;;;-0.40;99.90;;;;;;5031263;28;20046;-75
2023/12/02 04:52:06;;;;;;;35.95;24.58;;;-0.40;99.90;;;;;;5014718;28;20136;-74
2023/12/02 04:54:34;;;;;;;33.85;23.98;;;-0.40;99.90;;;;;;5014863;28;20092;-74
2023/12/02 04:57:03;;;;;;;35.47;25.08;;;-0.40;99.90;;;;;;5014863;28;20402;-79
2023/12/02 04:59:28;;;;;;;37.03;24.88;;;-0.40;99.90;;;;;;5015033;28;20045;-74
2023/12/02 05:01:55;;;;;;;35.08;24.48;;;-0.40;99.90;;;;;;4998605;28;20414;-74
2023/12/02 05:04:20;;;;;;;33.50;24.40;;;-0.40;99.90;;;;;;4998061;28;20586;-73
2023/12/02 05:06:46;;;;;;;34.15;23.60;;;-0.40;99.90;;;;;;5031451;28;20053;-74
2023/12/02 05:09:12;;;;;;;33.83;25.13;;;-0.30;99.90;;;;;;4998153;28;20053;-74
2023/12/02 05:11:38;;;;;;;35.28;24.95;;;-0.40;99.90;;;;;;5031313;28;20052;-74
2023/12/02 05:14:03;;;;;;;35.72;24.42;;;-0.40;99.90;;;;;;5031029;28;20148;-79
2023/12/02 05:16:29;;;;;;;36.95;26.38;;;-0.40;99.90;;;;;;5031225;28;20474;-74
2023/12/02 05:18:55;;;;;;;36.78;25.60;;;-0.40;99.90;;;;;;5031256;28;20546;-74
2023/12/02 05:21:20;;;;;;;36.30;24.80;;;-0.40;99.90;;;;;;4998092;28;20041;-74
2023/12/02 05:23:46;;;;;;;36.80;26.45;;;-0.50;99.90;;;;;;5030980;28;20045;-74
2023/12/02 05:26:12;;;;;;;35.60;25.05;;;-0.40;99.90;;;;;;5030511;28;20053;-74
2023/12/02 05:28:38;;;;;;;41.72;27.17;;;-0.40;99.90;;;;;;4998179;28;20042;-74
2023/12/02 05:31:05;;;;;;;36.60;25.85;;;-0.40;99.90;;;;;;5031800;28;20100;-79
2023/12/02 05:33:31;;;;;;;36.50;26.50;;;-0.40;99.90;;;;;;5033356;28;20538;-74
2023/12/02 05:35:57;;;;;;;40.38;26.63;;;-0.40;99.90;;;;;;5035972;28;20503;-74
2023/12/02 05:38:23;;;;;;;36.65;26.23;;;-0.40;99.90;;;;;;5017781;28;20048;-74
2023/12/02 05:40:48;;;;;;;38.30;27.42;;;-0.40;99.90;;;;;;5034771;28;20052;-74
2023/12/02 05:43:14;;;;;;;37.72;26.52;;;-0.40;99.90;;;;;;5017947;28;20053;-74
2023/12/02 05:45:39;;;;;;;39.22;27.35;;;0.00;99.90;;;;;;5034847;28;20061;-74
2023/12/02 05:48:05;;;;;;;39.05;26.45;;;-0.40;99.90;;;;;;5001707;28;20190;-74
2023/12/02 05:50:31;;;;;;;35.72;26.52;;;-0.40;99.90;;;;;;5018075;28;20068;-74
2023/12/02 05:52:58;;;;;;;35.20;26.40;;;-0.40;99.90;;;;;;5034541;28;20092;-74
2023/12/02 05:55:25;;;;;;;38.30;26.42;;;-0.40;99.90;;;;;;5017498;28;20050;-74
2023/12/02 05:57:52;;;;;;;38.30;27.08;;;-0.40;99.90;;;;;;5034482;28;20050;-74
2023/12/02 06:00:18;;;;;;;36.50;26.30;;;-0.50;99.90;;;;;;5017340;28;20053;-74
2023/12/02 06:02:44;;;;;;;37.22;26.58;;;-0.50;99.90;;;;;;5034389;28;20442;-74
2023/12/02 06:05:10;;;;;;;39.30;26.65;;;-0.40;99.90;;;;;;5017641;28;20053;-79
2023/12/02 06:07:36;;;;;;;40.97;28.05;;;-0.50;99.90;;;;;;5034365;28;20053;-74
2023/12/02 06:10:02;;;;;;;37.50;27.58;;;-0.50;99.90;;;;;;5035290;28;20133;-73
2023/12/02 06:12:28;;;;;;;40.92;27.15;;;-0.50;99.90;;;;;;5033984;28;20064;-74
2023/12/02 06:14:53;;;;;;;36.70;27.30;;;-0.50;99.90;;;;;;5034118;28;20124;-74
2023/12/02 06:17:19;;;;;;;36.80;26.65;;;-0.50;99.90;;;;;;5033770;28;20505;-74
2023/12/02 06:19:45;;;;;;;39.67;28.92;;;-0.50;99.90;;;;;;5034086;28;20054;-74
2023/12/02 06:22:10;;;;;;;40.38;27.95;;;-0.40;99.90;;;;;;5017751;28;20190;-79
2023/12/02 06:24:36;;;;;;;40.25;27.85;;;-0.50;99.90;;;;;;5033451;28;20084;-74
2023/12/02 06:27:02;;;;;;;38.42;26.73;;;-0.50;99.90;;;;;;5017360;28;20049;-74
2023/12/02 06:29:28;;;;;;;37.22;26.88;;;-0.50;99.90;;;;;;5033429;28;20136;-74
2023/12/02 06:31:54;;;;;;;36.03;26.83;;;-0.50;99.90;;;;;;5033766;28;20133;-74
2023/12/02 06:34:20;;;;;;;38.58;28.00;;;-0.50;99.90;;;;;;5033425;28;20064;-74
2023/12/02 06:36:45;;;;;;;40.30;28.27;;;-0.50;99.90;;;;;;5033800;28;20037;-74
2023/12/02 06:39:15;;;;;;;41.42;27.65;;;-0.60;99.90;;;;;;5017521;28;20525;-74
2023/12/02 06:41:41;;;;;;;38.53;26.92;;;-0.50;99.90;;;;;;5033689;28;20140;-74
2023/12/02 06:44:10;;;;;;;37.20;27.30;;;-0.50;99.90;;;;;;5016988;28;20053;-74
2023/12/02 06:46:36;;;;;;;38.67;27.05;;;-0.50;99.90;;;;;;5016544;28;20357;-74
2023/12/02 06:49:02;;;;;;;38.03;27.15;;;-0.50;99.90;;;;;;5033732;28;20129;-74
2023/12/02 06:51:29;;;;;;;36.72;26.23;;;-0.50;99.90;;;;;;5033180;28;20394;-74
2023/12/02 06:53:56;;;;;;;37.20;27.40;;;-0.50;99.90;;;;;;5017185;28;20056;-74
2023/12/02 06:56:24;;;;;;;38.80;27.42;;;-0.50;99.90;;;;;;5032742;28;20038;-74
2023/12/02 06:58:50;;;;;;;38.65;27.42;;;0.00;99.90;;;;;;5033021;28;20136;-74
2023/12/02 07:01:29;;;;;;;37.33;26.60;;;-0.50;99.90;;;;;;5033317;28;20045;-77
2023/12/02 07:04:00;;;;;;;38.22;27.35;;;-0.30;99.90;;;;;;5033299;28;20042;-73
2023/12/02 07:06:26;;;;;;;36.50;26.23;;;-0.50;99.90;;;;;;5016310;28;20053;-74
2023/12/02 07:08:53;;;;;;;41.28;27.42;;;0.40;99.90;;;;;;5033025;28;20428;-73
2023/12/02 07:11:20;;;;;;;36.03;25.90;;;-0.50;99.90;;;;;;5033001;28;20060;-79
2023/12/02 07:13:46;;;;;;;38.83;27.10;;;-0.50;99.90;;;;;;5016638;28;20410;-74
2023/12/02 07:16:12;;;;;;;36.83;26.25;;;-0.40;99.90;;;;;;5033053;28;20054;-76
2023/12/02 07:18:38;;;;;;;37.70;26.58;;;-0.40;99.90;;;;;;5032788;28;20098;-76
2023/12/02 07:21:04;;;;;;;40.00;26.50;;;-0.40;99.90;;;;;;5016330;28;20045;-73
2023/12/02 07:23:29;;;;;;;34.40;25.65;;;-0.40;99.90;;;;;;5032067;28;20098;-73
2023/12/02 07:25:56;;;;;;;37.13;26.98;;;-0.40;99.90;;;;;;5033627;28;20052;-74
2023/12/02 07:28:23;;;;;;;34.22;24.40;;;-0.40;99.90;;;;;;5032104;28;20041;-79
2023/12/02 07:30:49;;;;;;;37.78;26.17;;;-0.30;99.90;;;;;;5015556;28;20056;-73
2023/12/02 07:33:15;;;;;;;33.47;24.42;;;-0.30;99.90;;;;;;5032361;28;20061;-76
2023/12/02 07:35:42;;;;;;;34.30;24.42;;;-0.30;99.90;;;;;;5031967;28;20118;-75
2023/12/02 07:38:08;;;;;;;35.10;25.80;;;-0.30;99.90;;;;;;5032179;28;20103;-74
2023/12/02 07:40:35;;;;;;;34.60;25.55;;;-0.30;99.90;;;;;;5015638;28;20053;-73
2023/12/02 07:43:01;;;;;;;34.90;24.75;;;-0.40;99.90;;;;;;5015939;28;20049;-73
2023/12/02 07:45:27;;;;;;;35.08;24.27;;;-0.30;99.90;;;;;;5015167;28;20459;-76
2023/12/02 07:47:53;;;;;;;34.72;24.05;;;-0.40;99.90;;;;;;4999631;28;20052;-74
2023/12/02 07:50:19;;;;;;;35.05;24.25;;;-0.40;99.90;;;;;;5032184;28;20132;-73
2023/12/02 07:52:45;;;;;;;36.45;25.52;;;-0.40;99.90;;;;;;5015453;28;20041;-73
2023/12/02 07:55:11;;;;;;;34.03;24.40;;;-0.50;99.90;;;;;;5031659;28;20553;-74
2023/12/02 07:57:37;;;;;;;36.45;26.63;;;0.10;99.90;;;;;;5031557;28;20050;-74
2023/12/02 08:00:04;;;;;;;34.90;24.27;;;0.00;99.90;;;;;;5032147;28;20056;-73
2023/12/02 08:02:30;;;;;;;34.15;25.08;;;-0.50;99.90;;;;;;5014866;28;20502;-73
2023/12/02 08:04:57;;;;;;;36.50;25.15;;;-0.40;99.90;;;;;;5015243;28;20045;-73
2023/12/02 08:07:23;;;;;;;36.03;25.95;;;-0.40;99.90;;;;;;5015702;28;20057;-73
2023/12/02 08:09:48;;;;;;;36.55;24.27;;;-0.40;99.90;;;;;;5031348;28;20126;-73
2023/12/02 08:12:15;;;;;;;34.05;24.95;;;0.00;99.90;;;;;;5031637;28;20047;-73
2023/12/02 08:14:41;;;;;;;35.05;25.42;;;-0.30;99.90;;;;;;5031209;28;20046;-73
2023/12/02 08:17:07;;;;;;;34.22;24.50;;;-0.30;99.90;;;;;;5015556;28;20114;-74
2023/12/02 08:19:33;;;;;;;37.30;25.92;;;-0.30;99.90;;;;;;5031218;28;20096;-73
2023/12/02 08:21:59;;;;;;;35.10;24.92;;;-0.30;99.90;;;;;;5015399;28;20080;-71
2023/12/02 08:24:25;;;;;;;35.53;24.95;;;-0.30;99.90;;;;;;5031383;28;20052;-71
2023/12/02 08:26:50;;;;;;;35.60;25.40;;;-0.20;99.90;;;;;;5032252;28;20089;-72
2023/12/02 08:29:16;;;;;;;36.17;25.45;;;0.30;99.90;;;;;;5015505;28;20049;-72
2023/12/02 08:31:42;;;;;;;38.10;26.50;;;-0.20;99.90;;;;;;5030877;28;20061;-73
2023/12/02 08:34:07;;;;;;;34.72;25.10;;;-0.10;99.90;;;;;;5015424;28;20085;-72
2023/12/02 08:36:33;;;;;;;34.53;24.27;;;0.50;99.90;;;;;;5030983;28;20081;-72
2023/12/02 08:38:59;;;;;;;34.83;25.30;;;-0.10;99.90;;;;;;5032168;28;20044;-72
2023/12/02 08:41:25;;;;;;;33.70;24.60;;;-0.10;99.90;;;;;;5031238;28;20044;-71
2023/12/02 08:43:50;;;;;;;35.40;24.60;;;1.00;99.90;;;;;;5014580;28;20481;-71
2023/12/02 08:46:19;;;;;;;37.63;24.83;;;0.10;99.90;;;;;;5032618;28;20049;-72
2023/12/02 08:48:45;;;;;;;32.55;24.10;;;0.10;99.90;;;;;;5014455;28;20056;-75
2023/12/02 08:51:11;;;;;;;32.50;23.65;;;0.10;99.90;;;;;;5031678;28;20076;-75
2023/12/02 08:53:37;;;;;;;34.90;24.98;;;0.10;99.90;;;;;;5014505;28;20045;-78
2023/12/02 08:56:04;;;;;;;34.80;25.30;;;0.10;99.90;;;;;;4998732;28;20132;-78
2023/12/02 08:58:29;;;;;;;36.38;25.27;;;0.20;99.90;;;;;;5031159;28;20132;-78
2023/12/02 09:00:55;;;;;;;36.65;24.95;;;0.30;99.90;;;;;;5030665;28;20145;-81
2023/12/02 09:03:22;;;;;;;37.72;27.55;;;0.70;99.90;;;;;;5031122;28;20203;-79
2023/12/02 09:05:49;;;;;;;41.53;28.10;;;0.60;99.90;;;;;;5030740;28;20530;-79
2023/12/02 09:08:14;;;;;;;37.85;26.60;;;0.30;99.90;;;;;;5034000;28;20049;-77
2023/12/02 09:10:40;;;;;;;37.78;27.17;;;0.30;99.90;;;;;;5034913;28;20052;-77
2023/12/02 09:13:46;;;;;;;32.10;23.88;;;0.30;99.90;;;;;;5018885;28;20057;-77
2023/12/02 09:16:32;;;;;;;35.92;24.88;;;0.30;99.90;;;;;;5018872;28;20140;-77
2023/12/02 09:18:58;;;;;;;35.95;26.00;;;0.30;99.90;;;;;;5034365;28;20061;-80
2023/12/02 09:21:44;;;;;;;34.45;25.08;;;0.40;99.90;;;;;;5018452;28;20037;-77
2023/12/02 09:24:32;;;;;;;34.08;24.25;;;0.40;99.90;;;;;;5018159;28;20041;-76
2023/12/02 09:26:58;;;;;;;73.07;31.98;;;0.30;99.90;;;;;;5034621;28;20049;-77
2023/12/02 09:29:34;;;;;;;35.45;24.58;;;0.30;99.90;;;;;;5018351;28;20107;-77
2023/12/02 09:32:07;;;;;;;34.30;24.40;;;0.30;99.90;;;;;;5034706;28;20049;-77
2023/12/02 09:34:42;;;;;;;34.10;23.80;;;0.40;99.90;;;;;;5035115;28;20049;-77
2023/12/02 09:37:26;;;;;;;33.65;24.33;;;0.40;99.90;;;;;;5020452;28;20095;-77
2023/12/02 09:40:17;;;;;;;34.45;23.05;;;0.50;99.90;;;;;;5037392;28;20041;-75
2023/12/02 09:42:45;;;;;;;31.17;21.38;;;0.40;99.90;;;;;;5021380;28;20053;-76
2023/12/02 09:45:11;;;;;;;29.40;22.40;;;0.50;99.90;;;;;;5020214;28;20057;-76
2023/12/02 09:47:41;;;;;;;32.53;22.33;;;0.50;99.90;;;;;;5020587;28;20570;-77
2023/12/02 09:50:09;;;;;;;33.00;23.40;;;0.50;99.90;;;;;;5035468;28;20407;-77
2023/12/02 09:53:00;;;;;;;31.98;22.50;;;0.50;99.90;;;;;;5034974;28;20053;-78
2023/12/02 09:55:32;;;;;;;31.35;22.33;;;0.60;99.90;;;;;;5035272;28;20049;-77
2023/12/02 09:57:58;;;;;;;32.55;22.65;;;0.60;99.90;;;;;;5017761;28;20068;-74
2023/12/02 10:00:30;;;;;;;32.05;23.23;;;0.60;99.90;;;;;;5018265;28;20081;-77
2023/12/02 10:03:12;;;;;;;31.33;22.13;;;0.70;99.90;;;;;;5033771;28;20050;-77
2023/12/02 10:05:46;;;;;;;32.70;22.13;;;0.70;99.90;;;;;;5034940;28;20081;-77
2023/12/02 10:08:34;;;;;;;33.22;22.70;;;0.80;99.90;;;;;;5017853;28;20079;-73
2023/12/02 10:11:07;;;;;;;29.30;20.95;;;1.80;99.90;;;;;;5033081;28;20053;-73
2023/12/02 10:13:54;;;;;;;27.25;20.40;;;0.90;99.90;;;;;;5017751;28;20053;-72
2023/12/02 10:16:23;;;;;;;26.08;19.20;;;0.90;99.90;;;;;;5035035;28;20045;-73
2023/12/02 10:18:53;;;;;;;29.92;19.45;;;0.90;99.90;;;;;;5034183;28;20045;-72
2023/12/02 10:21:21;;;;;;;27.95;19.50;;;1.00;99.90;;;;;;5033898;28;20049;-74
2023/12/02 10:24:01;;;;;;;27.42;19.20;;;1.00;99.90;;;;;;5033505;28;20395;-74
2023/12/02 10:26:48;;;;;;;23.23;17.58;;;1.10;99.90;;;;;;5035094;28;20053;-73
2023/12/02 10:29:22;;;;;;;24.08;17.73;;;1.10;99.90;;;;;;5033559;28;20049;-74
2023/12/02 10:32:37;;;;;;;24.88;18.88;;;1.20;99.90;;;;;;5033542;28;20057;-74
2023/12/02 10:35:09;;;;;;;24.92;17.92;;;1.30;99.90;;;;;;5033232;28;20045;-77
2023/12/02 10:37:46;;;;;;;27.02;19.40;;;1.30;99.90;;;;;;5033731;28;20060;-78
2023/12/02 10:40:14;;;;;;;25.33;18.48;;;1.40;99.90;;;;;;5033799;28;20053;-78
2023/12/02 10:42:48;;;;;;;25.45;16.95;;;1.50;99.90;;;;;;4985214;28;20563;-78
2023/12/02 10:45:15;;;;;;;;;;;1.50;99.90;;;;;;5034173;28;20119;-78
2023/12/02 10:47:42;;;;;;;20.48;15.60;;;1.60;99.90;;;;;;5034306;28;19983;-77
2023/12/02 10:50:08;;;;;;;25.23;17.60;;;2.30;99.90;;;;;;5000860;28;20183;-80
2023/12/02 10:52:36;;;;;;;23.35;16.63;;;1.70;99.90;;;;;;5017643;28;20049;-77
2023/12/02 10:55:03;;;;;;;24.05;16.88;;;1.70;99.90;;;;;;5016923;28;20399;-78
2023/12/02 10:57:29;;;;;;;25.63;16.70;;;1.80;99.90;;;;;;5017182;28;20045;-80
2023/12/02 11:00:07;;;;;;;22.98;16.35;;;1.80;99.90;;;;;;5033137;28;20136;-79
2023/12/02 11:02:47;;;;;;;22.40;16.30;;;1.80;99.90;;;;;;5033450;28;20096;-79
2023/12/02 11:05:21;;;;;;;22.77;16.48;;;1.80;99.90;;;;;;5033004;28;20050;-81
2023/12/02 11:07:54;;;;;;;;;;;1.90;99.90;;;;;;5016747;28;20052;-76
2023/12/02 11:10:46;;;;;;;20.67;15.55;;;1.90;99.90;;;;;;5033310;28;19928;-79
2023/12/02 11:13:18;;;;;;;21.23;15.13;;;2.00;99.90;;;;;;5030285;28;20052;-79
2023/12/02 11:16:16;;;;;;;19.27;14.38;;;2.10;99.90;;;;;;5033349;28;20099;-79
2023/12/02 11:18:57;;;;;;;18.90;13.73;;;2.00;99.90;;;;;;5024854;28;20057;-79
2023/12/02 11:21:39;;;;;;;16.52;12.05;;;2.00;99.90;;;;;;5032905;28;20081;-78
2023/12/02 11:24:29;;;;;;;18.48;12.48;;;2.10;99.90;;;;;;5016165;28;20092;-78
2023/12/02 11:27:04;;;;;;;17.98;11.88;;;2.10;99.90;;;;;;5032902;28;20049;-78
2023/12/02 11:29:54;;;;;;;16.48;11.50;;;2.10;99.90;;;;;;5031724;28;20051;-70
2023/12/02 11:32:44;;;;;;;17.88;11.52;;;2.20;99.90;;;;;;5033773;28;20407;-72
2023/12/02 11:35:21;;;;;;;16.83;10.85;;;2.30;99.90;;;;;;5032183;28;20548;-72
2023/12/02 11:37:58;;;;;;;14.82;9.85;;;2.40;99.90;;;;;;5031987;28;20100;-73
2023/12/02 11:40:45;;;;;;;12.57;8.90;;;2.40;99.90;;;;;;5032364;28;20049;-71
2023/12/02 11:43:33;;;;;;;12.45;8.80;;;2.40;99.90;;;;;;5032712;28;20503;-72
2023/12/02 11:46:04;;;;;;;14.60;8.30;;;2.40;99.90;;;;;;5033134;28;20053;-72
2023/12/02 11:48:57;;;;;;;13.45;7.82;;;2.40;99.90;;;;;;5032556;28;20092;-70
2023/12/02 11:51:31;;;;;;;14.43;8.75;;;2.40;99.90;;;;;;5033573;28;20077;-70
2023/12/02 11:54:09;;;;;;;12.48;8.75;;;2.40;99.90;;;;;;5031970;28;20486;-73
2023/12/02 11:56:35;;;;;;;12.18;8.55;;;2.40;99.90;;;;;;5031866;28;20053;-72
2023/12/02 11:59:17;;;;;;;13.40;9.52;;;2.40;99.90;;;;;;5032855;28;20084;-71
2023/12/02 12:01:54;;;;;;;12.52;8.80;;;2.40;99.90;;;;;;5033069;28;20084;-71
2023/12/02 12:04:26;;;;;;;12.30;9.23;;;2.40;99.90;;;;;;5032589;28;20049;-70
2023/12/02 12:07:07;;;;;;;13.65;9.02;;;2.40;99.90;;;;;;5032040;28;20049;-70
2023/12/02 12:09:44;;;;;;;14.15;9.10;;;2.40;99.90;;;;;;5032969;28;20120;-70
2023/12/02 12:12:11;;;;;;;12.75;9.48;;;2.30;99.90;;;;;;5031277;28;20119;-71
2023/12/02 12:14:39;;;;;;;13.63;9.52;;;2.30;99.90;;;;;;5033037;28;20088;-71
2023/12/02 12:17:05;;;;;;;17.20;9.60;;;2.30;99.90;;;;;;5031588;28;20438;-71
2023/12/02 12:19:30;;;;;;;15.52;9.75;;;2.20;99.90;;;;;;5031744;28;20045;-71
2023/12/02 12:21:56;;;;;;;14.95;9.88;;;2.50;99.90;;;;;;5032996;28;20436;-70
2023/12/02 12:24:22;;;;;;;13.95;9.98;;;2.20;99.90;;;;;;5032076;28;20509;-71
2023/12/02 12:26:48;;;;;;;12.82;10.25;;;2.20;99.90;;;;;;5031600;28;20132;-71
2023/12/02 12:29:15;;;;;;;15.90;10.43;;;2.20;99.90;;;;;;5031210;28;20088;-72
2023/12/02 12:31:44;;;;;;;13.80;10.60;;;2.10;99.90;;;;;;5014641;28;20057;-72
2023/12/02 12:34:14;;;;;;;14.30;10.40;;;2.10;99.90;;;;;;5032122;28;20128;-70
2023/12/02 12:36:41;;;;;;;14.40;10.13;;;2.10;99.90;;;;;;5032650;28;20388;-71
2023/12/02 12:39:07;;;;;;;14.90;11.02;;;2.40;99.90;;;;;;5032037;28;20491;-70
2023/12/02 12:41:38;;;;;;;14.50;10.02;;;2.20;99.90;;;;;;5032174;28;20041;-69